Marinwood, California
Current Conditions -  °F | °C
As of 8:35 PM on Tuesday 21 Oct 2014 (Local Time) from KDVO Reporting Station
Clear Clear  
Wind Chill: 61°   Ceiling: Unl
Heat Index: 61°   Visibility: NA
Dew Point: 52°   Wind: 7mph
Humidity: 72%   Direction: 170°S
Pressure: 30.03"   Gusts: NA
Location:  38.0232°N, 122.547°W
Report Text: KDVO 220335Z AUTO 17006KT CLR 16/11 A3003 RMK AO2
Loading
Personal Weather Stations






























Interactive Weather Map
Tropical Storm Tracking
New forecast layout! Learn more

10-Day Weather Forecast

Advertisements
Track Severe Weather on mobile